sensor_id;sensor_type;location;lat;lon;timestamp;temperature;humidity
13686;DHT22;6915;48.296;8.874;2023-02-01T00:01:33;2.20;99.90
13686;DHT22;6915;48.296;8.874;2023-02-01T00:04:01;2.00;99.90
13686;DHT22;6915;48.296;8.874;2023-02-01T00:06:32;2.10;99.90
13686;DHT22;6915;48.296;8.874;2023-02-01T00:09:00;2.20;99.90
13686;DHT22;6915;48.296;8.874;2023-02-01T00:11:30;2.10;99.90
13686;DHT22;6915;48.296;8.874;2023-02-01T00:13:59;2.10;99.90
13686;DHT22;6915;48.296;8.874;2023-02-01T00:16:30;2.30;99.90
13686;DHT22;6915;48.296;8.874;2023-02-01T00:19:01;2.20;99.90
13686;DHT22;6915;48.296;8.874;2023-02-01T00:21:31;2.10;99.90
13686;DHT22;6915;48.296;8.874;2023-02-01T00:24:00;2.10;99.90
13686;DHT22;6915;48.296;8.874;2023-02-01T00:26:32;2.10;99.90
13686;DHT22;6915;48.296;8.874;2023-02-01T00:29:02;2.20;99.90
13686;DHT22;6915;48.296;8.874;2023-02-01T00:31:33;2.20;99.90
13686;DHT22;6915;48.296;8.874;2023-02-01T00:34:01;2.20;99.90
13686;DHT22;6915;48.296;8.874;2023-02-01T00:36:31;2.30;99.90
13686;DHT22;6915;48.296;8.874;2023-02-01T00:39:01;2.30;99.90
13686;DHT22;6915;48.296;8.874;2023-02-01T00:41:28;2.30;99.90
13686;DHT22;6915;48.296;8.874;2023-02-01T00:43:57;2.40;99.90
13686;DHT22;6915;48.296;8.874;2023-02-01T00:46:41;2.40;99.90
13686;DHT22;6915;48.296;8.874;2023-02-01T00:49:09;2.40;99.90
13686;DHT22;6915;48.296;8.874;2023-02-01T00:51:38;2.50;99.90
13686;DHT22;6915;48.296;8.874;2023-02-01T00:54:06;2.50;99.90
13686;DHT22;6915;48.296;8.874;2023-02-01T00:56:35;2.50;99.90
13686;DHT22;6915;48.296;8.874;2023-02-01T00:59:04;2.40;99.90
13686;DHT22;6915;48.296;8.874;2023-02-01T01:01:36;2.40;99.90
13686;DHT22;6915;48.296;8.874;2023-02-01T01:04:06;2.50;99.90
13686;DHT22;6915;48.296;8.874;2023-02-01T01:06:35;2.50;99.90
13686;DHT22;6915;48.296;8.874;2023-02-01T01:09:06;2.50;99.90
13686;DHT22;6915;48.296;8.874;2023-02-01T01:11:36;2.50;99.90
13686;DHT22;6915;48.296;8.874;2023-02-01T01:14:07;2.60;99.90
13686;DHT22;6915;48.296;8.874;2023-02-01T01:16:36;2.50;99.90
13686;DHT22;6915;48.296;8.874;2023-02-01T01:19:06;2.50;99.90
13686;DHT22;6915;48.296;8.874;2023-02-01T01:21:35;2.70;99.90
13686;DHT22;6915;48.296;8.874;2023-02-01T01:24:04;2.50;99.90
13686;DHT22;6915;48.296;8.874;2023-02-01T01:26:33;2.50;99.90
13686;DHT22;6915;48.296;8.874;2023-02-01T01:29:02;2.60;99.90
13686;DHT22;6915;48.296;8.874;2023-02-01T01:31:31;2.50;99.90
13686;DHT22;6915;48.296;8.874;2023-02-01T01:34:01;2.50;99.90
13686;DHT22;6915;48.296;8.874;2023-02-01T01:36:31;2.50;99.90
13686;DHT22;6915;48.296;8.874;2023-02-01T01:39:00;2.50;99.90
13686;DHT22;6915;48.296;8.874;2023-02-01T01:41:32;2.50;99.90
13686;DHT22;6915;48.296;8.874;2023-02-01T01:44:02;2.50;99.90
13686;DHT22;6915;48.296;8.874;2023-02-01T01:46:34;2.50;99.90
13686;DHT22;6915;48.296;8.874;2023-02-01T01:49:05;2.50;99.90
13686;DHT22;6915;48.296;8.874;2023-02-01T01:51:40;2.70;99.90
13686;DHT22;6915;48.296;8.874;2023-02-01T01:54:14;2.70;99.90
13686;DHT22;6915;48.296;8.874;2023-02-01T01:56:47;2.60;99.90
13686;DHT22;6915;48.296;8.874;2023-02-01T01:59:17;2.60;99.90
13686;DHT22;6915;48.296;8.874;2023-02-01T02:01:48;2.70;99.90
13686;DHT22;6915;48.296;8.874;2023-02-01T02:04:17;2.60;99.90
13686;DHT22;6915;48.296;8.874;2023-02-01T02:06:51;2.60;99.90
13686;DHT22;6915;48.296;8.874;2023-02-01T02:09:23;2.70;99.90
13686;DHT22;6915;48.296;8.874;2023-02-01T02:11:52;2.60;99.90
13686;DHT22;6915;48.296;8.874;2023-02-01T02:14:22;2.70;99.90
13686;DHT22;6915;48.296;8.874;2023-02-01T02:17:16;2.70;99.90
13686;DHT22;6915;48.296;8.874;2023-02-01T02:20:22;2.70;99.90
13686;DHT22;6915;48.296;8.874;2023-02-01T02:26:25;2.80;99.90
13686;DHT22;6915;48.296;8.874;2023-02-01T02:32:08;2.80;99.90
13686;DHT22;6915;48.296;8.874;2023-02-01T02:34:48;2.70;99.90
13686;DHT22;6915;48.296;8.874;2023-02-01T02:37:25;2.70;99.90
13686;DHT22;6915;48.296;8.874;2023-02-01T02:40:03;2.80;99.90
13686;DHT22;6915;48.296;8.874;2023-02-01T02:42:40;2.80;99.90
13686;DHT22;6915;48.296;8.874;2023-02-01T02:50:53;2.80;99.90
13686;DHT22;6915;48.296;8.874;2023-02-01T02:53:40;2.80;99.90
13686;DHT22;6915;48.296;8.874;2023-02-01T02:56:37;2.80;99.90
13686;DHT22;6915;48.296;8.874;2023-02-01T02:59:25;2.80;99.90
13686;DHT22;6915;48.296;8.874;2023-02-01T03:02:15;2.90;99.90
13686;DHT22;6915;48.296;8.874;2023-02-01T03:05:02;2.70;99.90
13686;DHT22;6915;48.296;8.874;2023-02-01T03:07:57;2.70;99.90
13686;DHT22;6915;48.296;8.874;2023-02-01T03:10:31;2.60;99.90
13686;DHT22;6915;48.296;8.874;2023-02-01T03:13:02;2.60;99.90
13686;DHT22;6915;48.296;8.874;2023-02-01T03:15:38;2.70;99.90
13686;DHT22;6915;48.296;8.874;2023-02-01T03:18:11;2.80;99.90
13686;DHT22;6915;48.296;8.874;2023-02-01T03:20:43;2.60;99.90
13686;DHT22;6915;48.296;8.874;2023-02-01T03:23:17;2.60;99.90
13686;DHT22;6915;48.296;8.874;2023-02-01T03:25:49;2.70;99.90
13686;DHT22;6915;48.296;8.874;2023-02-01T03:28:21;2.60;99.90
13686;DHT22;6915;48.296;8.874;2023-02-01T03:30:51;2.60;99.90
13686;DHT22;6915;48.296;8.874;2023-02-01T03:33:22;2.60;99.90
13686;DHT22;6915;48.296;8.874;2023-02-01T03:35:59;2.70;99.90
13686;DHT22;6915;48.296;8.874;2023-02-01T03:38:33;2.70;99.90
13686;DHT22;6915;48.296;8.874;2023-02-01T03:41:08;2.60;99.90
13686;DHT22;6915;48.296;8.874;2023-02-01T03:43:40;2.70;99.90
13686;DHT22;6915;48.296;8.874;2023-02-01T03:46:15;2.60;99.90
13686;DHT22;6915;48.296;8.874;2023-02-01T03:48:46;2.60;99.90
13686;DHT22;6915;48.296;8.874;2023-02-01T03:51:15;2.60;99.90
13686;DHT22;6915;48.296;8.874;2023-02-01T03:53:49;2.70;99.90
13686;DHT22;6915;48.296;8.874;2023-02-01T03:56:20;2.60;99.90
13686;DHT22;6915;48.296;8.874;2023-02-01T03:58:50;2.60;99.90
13686;DHT22;6915;48.296;8.874;2023-02-01T04:53:49;2.50;99.90
13686;DHT22;6915;48.296;8.874;2023-02-01T04:56:18;2.50;99.90
13686;DHT22;6915;48.296;8.874;2023-02-01T04:58:46;2.60;99.90
13686;DHT22;6915;48.296;8.874;2023-02-01T05:03:45;2.50;99.90
13686;DHT22;6915;48.296;8.874;2023-02-01T05:06:14;2.50;99.90
13686;DHT22;6915;48.296;8.874;2023-02-01T05:08:43;2.70;99.90
13686;DHT22;6915;48.296;8.874;2023-02-01T05:11:13;2.50;99.90
13686;DHT22;6915;48.296;8.874;2023-02-01T05:13:55;2.50;99.90
13686;DHT22;6915;48.296;8.874;2023-02-01T05:16:24;2.50;99.90
13686;DHT22;6915;48.296;8.874;2023-02-01T05:18:53;2.50;99.90
13686;DHT22;6915;48.296;8.874;2023-02-01T05:21:24;2.50;99.90
13686;DHT22;6915;48.296;8.874;2023-02-01T05:23:53;2.50;99.90
13686;DHT22;6915;48.296;8.874;2023-02-01T05:26:41;2.50;99.90
13686;DHT22;6915;48.296;8.874;2023-02-01T05:29:11;2.50;99.90
13686;DHT22;6915;48.296;8.874;2023-02-01T05:31:41;2.50;99.90
13686;DHT22;6915;48.296;8.874;2023-02-01T05:34:10;2.50;99.90
13686;DHT22;6915;48.296;8.874;2023-02-01T05:36:39;2.70;99.90
13686;DHT22;6915;48.296;8.874;2023-02-01T05:39:08;2.60;99.90
13686;DHT22;6915;48.296;8.874;2023-02-01T05:41:38;2.60;99.90
13686;DHT22;6915;48.296;8.874;2023-02-01T05:44:08;2.70;99.90
13686;DHT22;6915;48.296;8.874;2023-02-01T05:46:37;2.60;99.90
13686;DHT22;6915;48.296;8.874;2023-02-01T05:49:06;2.60;99.90
13686;DHT22;6915;48.296;8.874;2023-02-01T05:51:35;2.70;99.90
13686;DHT22;6915;48.296;8.874;2023-02-01T05:54:04;2.60;99.90
13686;DHT22;6915;48.296;8.874;2023-02-01T05:56:33;2.70;99.90
13686;DHT22;6915;48.296;8.874;2023-02-01T05:59:02;2.70;99.90
13686;DHT22;6915;48.296;8.874;2023-02-01T06:01:33;2.70;99.90
13686;DHT22;6915;48.296;8.874;2023-02-01T06:04:02;2.70;99.90
13686;DHT22;6915;48.296;8.874;2023-02-01T06:06:30;2.90;99.90
13686;DHT22;6915;48.296;8.874;2023-02-01T06:08:59;2.70;99.90
13686;DHT22;6915;48.296;8.874;2023-02-01T06:11:28;2.80;99.90
13686;DHT22;6915;48.296;8.874;2023-02-01T06:13:57;2.80;99.90
13686;DHT22;6915;48.296;8.874;2023-02-01T06:16:26;2.80;99.90
13686;DHT22;6915;48.296;8.874;2023-02-01T06:18:57;2.80;99.90
13686;DHT22;6915;48.296;8.874;2023-02-01T06:21:26;2.70;99.90
13686;DHT22;6915;48.296;8.874;2023-02-01T06:23:56;2.80;99.90
13686;DHT22;6915;48.296;8.874;2023-02-01T06:26:26;2.70;99.90
13686;DHT22;6915;48.296;8.874;2023-02-01T06:28:55;2.80;99.90
13686;DHT22;6915;48.296;8.874;2023-02-01T06:31:25;2.80;99.90
13686;DHT22;6915;48.296;8.874;2023-02-01T06:33:54;2.80;99.90
13686;DHT22;6915;48.296;8.874;2023-02-01T06:36:24;2.90;99.90
13686;DHT22;6915;48.296;8.874;2023-02-01T06:38:53;2.90;99.90
13686;DHT22;6915;48.296;8.874;2023-02-01T06:41:23;2.90;99.90
13686;DHT22;6915;48.296;8.874;2023-02-01T06:43:53;2.90;99.90
13686;DHT22;6915;48.296;8.874;2023-02-01T06:46:22;2.80;99.90
13686;DHT22;6915;48.296;8.874;2023-02-01T06:48:54;2.70;99.90
13686;DHT22;6915;48.296;8.874;2023-02-01T06:51:26;2.70;99.90
13686;DHT22;6915;48.296;8.874;2023-02-01T06:53:56;2.70;99.90
13686;DHT22;6915;48.296;8.874;2023-02-01T06:56:26;2.70;99.90
13686;DHT22;6915;48.296;8.874;2023-02-01T06:58:55;2.80;99.90
13686;DHT22;6915;48.296;8.874;2023-02-01T07:01:26;2.60;99.90
13686;DHT22;6915;48.296;8.874;2023-02-01T07:03:55;2.60;99.90
13686;DHT22;6915;48.296;8.874;2023-02-01T07:06:25;2.80;99.90
13686;DHT22;6915;48.296;8.874;2023-02-01T07:08:54;2.70;99.90
13686;DHT22;6915;48.296;8.874;2023-02-01T07:11:31;2.60;99.90
13686;DHT22;6915;48.296;8.874;2023-02-01T07:14:10;2.60;99.90
13686;DHT22;6915;48.296;8.874;2023-02-01T07:16:39;2.60;99.90
13686;DHT22;6915;48.296;8.874;2023-02-01T07:19:08;2.60;99.90
13686;DHT22;6915;48.296;8.874;2023-02-01T07:21:39;2.50;99.90
13686;DHT22;6915;48.296;8.874;2023-02-01T07:24:08;2.60;99.90
13686;DHT22;6915;48.296;8.874;2023-02-01T07:26:37;2.60;99.90
13686;DHT22;6915;48.296;8.874;2023-02-01T07:29:06;2.70;99.90
13686;DHT22;6915;48.296;8.874;2023-02-01T07:31:35;2.60;99.90
13686;DHT22;6915;48.296;8.874;2023-02-01T07:34:04;2.60;99.90
13686;DHT22;6915;48.296;8.874;2023-02-01T07:36:33;2.60;99.90
13686;DHT22;6915;48.296;8.874;2023-02-01T07:39:05;2.60;99.90
13686;DHT22;6915;48.296;8.874;2023-02-01T07:41:34;2.60;99.90
13686;DHT22;6915;48.296;8.874;2023-02-01T07:44:03;2.70;99.90
13686;DHT22;6915;48.296;8.874;2023-02-01T07:46:32;2.60;99.90
13686;DHT22;6915;48.296;8.874;2023-02-01T07:49:01;2.50;99.90
13686;DHT22;6915;48.296;8.874;2023-02-01T07:51:31;2.50;99.90
13686;DHT22;6915;48.296;8.874;2023-02-01T07:54:00;2.60;99.90
13686;DHT22;6915;48.296;8.874;2023-02-01T07:56:31;2.60;99.90
13686;DHT22;6915;48.296;8.874;2023-02-01T07:59:00;2.60;99.90
13686;DHT22;6915;48.296;8.874;2023-02-01T08:01:30;2.70;99.90
13686;DHT22;6915;48.296;8.874;2023-02-01T08:04:00;2.70;99.90
13686;DHT22;6915;48.296;8.874;2023-02-01T08:06:30;2.80;99.90
13686;DHT22;6915;48.296;8.874;2023-02-01T08:09:00;2.80;99.90
13686;DHT22;6915;48.296;8.874;2023-02-01T08:11:31;2.80;99.90
13686;DHT22;6915;48.296;8.874;2023-02-01T08:14:00;2.90;99.90
13686;DHT22;6915;48.296;8.874;2023-02-01T08:16:29;2.90;99.90
13686;DHT22;6915;48.296;8.874;2023-02-01T08:18:58;2.90;99.90
13686;DHT22;6915;48.296;8.874;2023-02-01T08:21:29;3.10;99.90
13686;DHT22;6915;48.296;8.874;2023-02-01T08:24:04;3.00;99.90
13686;DHT22;6915;48.296;8.874;2023-02-01T08:26:34;3.10;99.90
13686;DHT22;6915;48.296;8.874;2023-02-01T08:29:06;3.00;99.90
13686;DHT22;6915;48.296;8.874;2023-02-01T08:31:35;3.00;99.90
13686;DHT22;6915;48.296;8.874;2023-02-01T08:34:08;3.00;99.90
13686;DHT22;6915;48.296;8.874;2023-02-01T08:36:37;3.10;99.90
13686;DHT22;6915;48.296;8.874;2023-02-01T08:39:06;3.00;99.90
13686;DHT22;6915;48.296;8.874;2023-02-01T08:41:38;3.00;99.90
13686;DHT22;6915;48.296;8.874;2023-02-01T08:44:07;3.00;99.90
13686;DHT22;6915;48.296;8.874;2023-02-01T08:46:36;3.00;99.90
13686;DHT22;6915;48.296;8.874;2023-02-01T08:49:05;3.10;99.90
13686;DHT22;6915;48.296;8.874;2023-02-01T08:51:34;3.10;99.90
13686;DHT22;6915;48.296;8.874;2023-02-01T08:54:03;3.20;99.90
13686;DHT22;6915;48.296;8.874;2023-02-01T08:56:32;3.20;99.90
13686;DHT22;6915;48.296;8.874;2023-02-01T08:59:02;3.20;99.90
13686;DHT22;6915;48.296;8.874;2023-02-01T09:01:31;3.30;99.90
13686;DHT22;6915;48.296;8.874;2023-02-01T09:04:00;3.30;99.90
13686;DHT22;6915;48.296;8.874;2023-02-01T09:06:29;3.30;99.90
13686;DHT22;6915;48.296;8.874;2023-02-01T09:08:58;3.40;99.90
13686;DHT22;6915;48.296;8.874;2023-02-01T09:11:27;3.40;99.90
13686;DHT22;6915;48.296;8.874;2023-02-01T09:13:56;3.40;99.90
13686;DHT22;6915;48.296;8.874;2023-02-01T09:16:26;3.50;99.90
13686;DHT22;6915;48.296;8.874;2023-02-01T09:18:54;3.40;99.90
13686;DHT22;6915;48.296;8.874;2023-02-01T09:21:23;3.40;99.90
13686;DHT22;6915;48.296;8.874;2023-02-01T09:28:57;3.50;99.90
13686;DHT22;6915;48.296;8.874;2023-02-01T09:31:27;3.50;99.90
13686;DHT22;6915;48.296;8.874;2023-02-01T09:33:56;3.60;99.90
13686;DHT22;6915;48.296;8.874;2023-02-01T09:36:25;3.70;99.90
13686;DHT22;6915;48.296;8.874;2023-02-01T09:38:54;3.80;99.90
13686;DHT22;6915;48.296;8.874;2023-02-01T09:43:59;4.00;99.90
13686;DHT22;6915;48.296;8.874;2023-02-01T09:46:33;4.00;99.90
13686;DHT22;6915;48.296;8.874;2023-02-01T09:49:05;4.30;99.90
13686;DHT22;6915;48.296;8.874;2023-02-01T09:51:37;4.20;99.90
13686;DHT22;6915;48.296;8.874;2023-02-01T09:54:12;4.40;99.90
13686;DHT22;6915;48.296;8.874;2023-02-01T09:56:44;4.30;99.90
13686;DHT22;6915;48.296;8.874;2023-02-01T09:59:23;4.40;99.90
13686;DHT22;6915;48.296;8.874;2023-02-01T10:01:56;4.30;99.90
13686;DHT22;6915;48.296;8.874;2023-02-01T10:04:27;4.20;99.90
13686;DHT22;6915;48.296;8.874;2023-02-01T10:07:06;4.00;99.90
13686;DHT22;6915;48.296;8.874;2023-02-01T10:09:44;4.00;99.90
13686;DHT22;6915;48.296;8.874;2023-02-01T10:15:45;4.10;99.90
13686;DHT22;6915;48.296;8.874;2023-02-01T10:18:30;4.20;99.90
13686;DHT22;6915;48.296;8.874;2023-02-01T10:21:08;4.20;99.90
13686;DHT22;6915;48.296;8.874;2023-02-01T10:26:44;4.10;99.90
13686;DHT22;6915;48.296;8.874;2023-02-01T10:29:17;4.20;99.90
13686;DHT22;6915;48.296;8.874;2023-02-01T10:31:47;4.20;99.90
13686;DHT22;6915;48.296;8.874;2023-02-01T10:34:21;4.20;99.90
13686;DHT22;6915;48.296;8.874;2023-02-01T10:36:59;4.20;99.90
13686;DHT22;6915;48.296;8.874;2023-02-01T10:39:29;4.10;99.90
13686;DHT22;6915;48.296;8.874;2023-02-01T10:41:58;4.00;99.90
13686;DHT22;6915;48.296;8.874;2023-02-01T10:44:28;4.00;99.90
13686;DHT22;6915;48.296;8.874;2023-02-01T10:46:59;4.10;99.90
13686;DHT22;6915;48.296;8.874;2023-02-01T10:49:37;3.80;99.90
13686;DHT22;6915;48.296;8.874;2023-02-01T10:52:10;3.60;99.90
13686;DHT22;6915;48.296;8.874;2023-02-01T10:54:41;3.50;99.90
13686;DHT22;6915;48.296;8.874;2023-02-01T10:57:20;3.40;99.90
13686;DHT22;6915;48.296;8.874;2023-02-01T10:59:48;3.40;99.90
13686;DHT22;6915;48.296;8.874;2023-02-01T11:02:22;3.30;99.90
13686;DHT22;6915;48.296;8.874;2023-02-01T11:05:03;3.30;99.90
13686;DHT22;6915;48.296;8.874;2023-02-01T11:07:33;3.40;99.90
13686;DHT22;6915;48.296;8.874;2023-02-01T11:10:03;3.50;99.90
13686;DHT22;6915;48.296;8.874;2023-02-01T11:12:33;3.60;99.90
13686;DHT22;6915;48.296;8.874;2023-02-01T11:15:18;3.80;99.90
13686;DHT22;6915;48.296;8.874;2023-02-01T11:17:49;4.00;99.90
13686;DHT22;6915;48.296;8.874;2023-02-01T11:20:32;4.10;99.90
13686;DHT22;6915;48.296;8.874;2023-02-01T11:23:03;4.20;99.90
13686;DHT22;6915;48.296;8.874;2023-02-01T11:25:34;4.30;99.90
13686;DHT22;6915;48.296;8.874;2023-02-01T11:28:04;4.40;99.90
13686;DHT22;6915;48.296;8.874;2023-02-01T11:30:36;4.80;99.90
13686;DHT22;6915;48.296;8.874;2023-02-01T11:33:06;5.10;99.90
13686;DHT22;6915;48.296;8.874;2023-02-01T11:35:40;4.80;99.90
13686;DHT22;6915;48.296;8.874;2023-02-01T11:38:19;4.60;99.90
13686;DHT22;6915;48.296;8.874;2023-02-01T11:40:49;4.50;99.90
13686;DHT22;6915;48.296;8.874;2023-02-01T11:43:22;4.30;99.90
13686;DHT22;6915;48.296;8.874;2023-02-01T11:46:00;4.40;99.90
13686;DHT22;6915;48.296;8.874;2023-02-01T11:48:32;4.40;99.90
13686;DHT22;6915;48.296;8.874;2023-02-01T11:51:20;4.40;99.90
13686;DHT22;6915;48.296;8.874;2023-02-01T11:54:02;4.30;99.90
13686;DHT22;6915;48.296;8.874;2023-02-01T11:56:39;4.30;99.90
13686;DHT22;6915;48.296;8.874;2023-02-01T11:59:36;4.10;99.90
13686;DHT22;6915;48.296;8.874;2023-02-01T12:02:33;4.20;99.90
13686;DHT22;6915;48.296;8.874;2023-02-01T12:05:27;3.90;99.90
13686;DHT22;6915;48.296;8.874;2023-02-01T12:08:07;3.90;99.90
13686;DHT22;6915;48.296;8.874;2023-02-01T12:10:46;3.90;99.90
13686;DHT22;6915;48.296;8.874;2023-02-01T12:13:24;3.90;99.90
13686;DHT22;6915;48.296;8.874;2023-02-01T12:16:01;4.00;99.90
13686;DHT22;6915;48.296;8.874;2023-02-01T12:22:05;4.00;99.90
13686;DHT22;6915;48.296;8.874;2023-02-01T12:28:06;3.90;99.90
13686;DHT22;6915;48.296;8.874;2023-02-01T12:31:07;3.90;99.90
13686;DHT22;6915;48.296;8.874;2023-02-01T12:33:48;3.90;99.90
13686;DHT22;6915;48.296;8.874;2023-02-01T12:36:21;3.80;99.90
13686;DHT22;6915;48.296;8.874;2023-02-01T12:38:55;3.80;99.90
13686;DHT22;6915;48.296;8.874;2023-02-01T12:41:46;3.90;99.90
13686;DHT22;6915;48.296;8.874;2023-02-01T12:44:25;4.00;99.90
13686;DHT22;6915;48.296;8.874;2023-02-01T12:47:00;4.20;99.90
13686;DHT22;6915;48.296;8.874;2023-02-01T12:49:38;4.00;99.90
13686;DHT22;6915;48.296;8.874;2023-02-01T12:52:16;4.10;99.90
13686;DHT22;6915;48.296;8.874;2023-02-01T12:54:52;4.30;99.90
13686;DHT22;6915;48.296;8.874;2023-02-01T12:57:25;4.10;99.90
13686;DHT22;6915;48.296;8.874;2023-02-01T12:59:59;4.00;99.90
13686;DHT22;6915;48.296;8.874;2023-02-01T13:02:34;4.10;99.90
13686;DHT22;6915;48.296;8.874;2023-02-01T13:05:12;4.10;99.90
13686;DHT22;6915;48.296;8.874;2023-02-01T13:07:45;4.20;99.90
13686;DHT22;6915;48.296;8.874;2023-02-01T13:10:17;4.10;99.90
13686;DHT22;6915;48.296;8.874;2023-02-01T13:12:50;4.10;99.90
13686;DHT22;6915;48.296;8.874;2023-02-01T13:15:27;4.30;99.90
13686;DHT22;6915;48.296;8.874;2023-02-01T13:18:00;4.10;99.90
13686;DHT22;6915;48.296;8.874;2023-02-01T13:20:34;4.10;99.90
13686;DHT22;6915;48.296;8.874;2023-02-01T13:23:07;4.10;99.90
13686;DHT22;6915;48.296;8.874;2023-02-01T13:25:43;4.10;99.90
13686;DHT22;6915;48.296;8.874;2023-02-01T13:28:18;4.10;99.90
13686;DHT22;6915;48.296;8.874;2023-02-01T13:34:26;4.10;99.90
13686;DHT22;6915;48.296;8.874;2023-02-01T13:37:05;4.10;99.90
13686;DHT22;6915;48.296;8.874;2023-02-01T13:39:45;4.30;99.90
13686;DHT22;6915;48.296;8.874;2023-02-01T13:42:18;4.10;99.90
13686;DHT22;6915;48.296;8.874;2023-02-01T13:44:48;4.00;99.90
13686;DHT22;6915;48.296;8.874;2023-02-01T13:47:24;4.00;99.90
13686;DHT22;6915;48.296;8.874;2023-02-01T13:49:55;4.20;99.90
13686;DHT22;6915;48.296;8.874;2023-02-01T13:52:27;4.10;99.90
13686;DHT22;6915;48.296;8.874;2023-02-01T13:55:25;4.00;99.90
13686;DHT22;6915;48.296;8.874;2023-02-01T13:58:01;4.00;99.90
13686;DHT22;6915;48.296;8.874;2023-02-01T14:00:32;4.00;99.90
13686;DHT22;6915;48.296;8.874;2023-02-01T14:03:23;4.10;99.90
13686;DHT22;6915;48.296;8.874;2023-02-01T14:06:42;4.10;99.90
13686;DHT22;6915;48.296;8.874;2023-02-01T14:09:16;4.00;99.90
13686;DHT22;6915;48.296;8.874;2023-02-01T14:11:46;4.00;99.90
13686;DHT22;6915;48.296;8.874;2023-02-01T14:14:44;4.00;99.90
13686;DHT22;6915;48.296;8.874;2023-02-01T14:17:37;4.00;99.90
13686;DHT22;6915;48.296;8.874;2023-02-01T14:23:22;4.00;99.90
13686;DHT22;6915;48.296;8.874;2023-02-01T14:26:12;3.90;99.90
13686;DHT22;6915;48.296;8.874;2023-02-01T14:28:53;3.90;99.90
13686;DHT22;6915;48.296;8.874;2023-02-01T14:31:44;4.00;99.90
13686;DHT22;6915;48.296;8.874;2023-02-01T14:34:16;4.00;99.90
13686;DHT22;6915;48.296;8.874;2023-02-01T14:36:47;3.90;99.90
13686;DHT22;6915;48.296;8.874;2023-02-01T14:39:26;3.90;99.90
13686;DHT22;6915;48.296;8.874;2023-02-01T14:41:57;4.00;99.90
13686;DHT22;6915;48.296;8.874;2023-02-01T14:44:28;4.00;99.90
13686;DHT22;6915;48.296;8.874;2023-02-01T14:47:29;4.00;99.90
13686;DHT22;6915;48.296;8.874;2023-02-01T14:50:23;3.90;99.90
13686;DHT22;6915;48.296;8.874;2023-02-01T14:53:09;4.00;99.90
13686;DHT22;6915;48.296;8.874;2023-02-01T14:55:43;4.00;99.90
13686;DHT22;6915;48.296;8.874;2023-02-01T14:58:18;4.00;99.90
13686;DHT22;6915;48.296;8.874;2023-02-01T15:00:53;3.90;99.90
13686;DHT22;6915;48.296;8.874;2023-02-01T15:03:41;3.90;99.90
13686;DHT22;6915;48.296;8.874;2023-02-01T15:06:21;3.90;99.90
13686;DHT22;6915;48.296;8.874;2023-02-01T15:08:53;4.20;99.90
13686;DHT22;6915;48.296;8.874;2023-02-01T15:11:24;4.00;99.90
13686;DHT22;6915;48.296;8.874;2023-02-01T15:13:54;3.90;99.90
13686;DHT22;6915;48.296;8.874;2023-02-01T15:16:25;3.90;99.90
13686;DHT22;6915;48.296;8.874;2023-02-01T15:19:07;3.90;99.90
13686;DHT22;6915;48.296;8.874;2023-02-01T15:21:43;3.90;99.90
13686;DHT22;6915;48.296;8.874;2023-02-01T15:24:14;3.90;99.90
13686;DHT22;6915;48.296;8.874;2023-02-01T15:26:48;3.90;99.90
13686;DHT22;6915;48.296;8.874;2023-02-01T15:29:18;3.90;99.90
13686;DHT22;6915;48.296;8.874;2023-02-01T15:31:49;3.90;99.90
13686;DHT22;6915;48.296;8.874;2023-02-01T15:34:20;3.90;99.90
13686;DHT22;6915;48.296;8.874;2023-02-01T15:36:49;3.90;99.90
13686;DHT22;6915;48.296;8.874;2023-02-01T15:39:23;3.90;99.90
13686;DHT22;6915;48.296;8.874;2023-02-01T15:44:37;3.80;99.90
13686;DHT22;6915;48.296;8.874;2023-02-01T15:47:11;3.80;99.90
13686;DHT22;6915;48.296;8.874;2023-02-01T15:49:43;3.80;99.90
13686;DHT22;6915;48.296;8.874;2023-02-01T15:52:21;3.80;99.90
13686;DHT22;6915;48.296;8.874;2023-02-01T15:54:51;3.90;99.90
13686;DHT22;6915;48.296;8.874;2023-02-01T15:57:23;3.80;99.90
13686;DHT22;6915;48.296;8.874;2023-02-01T16:00:00;3.80;99.90
13686;DHT22;6915;48.296;8.874;2023-02-01T16:02:36;3.70;99.90
13686;DHT22;6915;48.296;8.874;2023-02-01T16:05:24;3.80;99.90
13686;DHT22;6915;48.296;8.874;2023-02-01T16:07:59;3.70;99.90
13686;DHT22;6915;48.296;8.874;2023-02-01T16:10:31;3.80;99.90
13686;DHT22;6915;48.296;8.874;2023-02-01T16:13:07;3.70;99.90
13686;DHT22;6915;48.296;8.874;2023-02-01T16:15:38;3.70;99.90
13686;DHT22;6915;48.296;8.874;2023-02-01T16:18:10;3.70;99.90
13686;DHT22;6915;48.296;8.874;2023-02-01T16:20:41;3.70;99.90
13686;DHT22;6915;48.296;8.874;2023-02-01T16:23:12;3.60;99.90
13686;DHT22;6915;48.296;8.874;2023-02-01T16:25:42;3.60;99.90
13686;DHT22;6915;48.296;8.874;2023-02-01T16:28:11;3.70;99.90
13686;DHT22;6915;48.296;8.874;2023-02-01T16:30:41;3.50;99.90
13686;DHT22;6915;48.296;8.874;2023-02-01T16:33:14;3.50;99.90
13686;DHT22;6915;48.296;8.874;2023-02-01T16:35:45;3.50;99.90
13686;DHT22;6915;48.296;8.874;2023-02-01T16:38:16;3.50;99.90
13686;DHT22;6915;48.296;8.874;2023-02-01T16:40:47;3.40;99.90
13686;DHT22;6915;48.296;8.874;2023-02-01T16:43:17;3.40;99.90
13686;DHT22;6915;48.296;8.874;2023-02-01T16:45:50;3.40;99.90
13686;DHT22;6915;48.296;8.874;2023-02-01T16:48:23;3.40;99.90
13686;DHT22;6915;48.296;8.874;2023-02-01T16:50:55;3.30;99.90
13686;DHT22;6915;48.296;8.874;2023-02-01T16:53:25;3.50;99.90
13686;DHT22;6915;48.296;8.874;2023-02-01T16:55:55;3.40;99.90
13686;DHT22;6915;48.296;8.874;2023-02-01T16:58:26;3.40;99.90
13686;DHT22;6915;48.296;8.874;2023-02-01T17:00:56;3.30;99.90
13686;DHT22;6915;48.296;8.874;2023-02-01T17:03:26;3.40;99.90
13686;DHT22;6915;48.296;8.874;2023-02-01T17:05:56;3.30;99.90
13686;DHT22;6915;48.296;8.874;2023-02-01T17:08:29;3.30;99.90
13686;DHT22;6915;48.296;8.874;2023-02-01T17:10:58;3.30;99.90
13686;DHT22;6915;48.296;8.874;2023-02-01T17:13:27;3.30;99.90
13686;DHT22;6915;48.296;8.874;2023-02-01T17:15:59;3.40;99.90
13686;DHT22;6915;48.296;8.874;2023-02-01T17:18:31;3.30;99.90
13686;DHT22;6915;48.296;8.874;2023-02-01T17:21:02;3.30;99.90
13686;DHT22;6915;48.296;8.874;2023-02-01T17:23:32;3.30;99.90
13686;DHT22;6915;48.296;8.874;2023-02-01T17:26:01;3.40;99.90
13686;DHT22;6915;48.296;8.874;2023-02-01T17:28:30;3.30;99.90
13686;DHT22;6915;48.296;8.874;2023-02-01T17:31:00;3.20;99.90
13686;DHT22;6915;48.296;8.874;2023-02-01T17:33:33;3.20;99.90
13686;DHT22;6915;48.296;8.874;2023-02-01T17:36:03;3.20;99.90
13686;DHT22;6915;48.296;8.874;2023-02-01T17:38:33;3.20;99.90
13686;DHT22;6915;48.296;8.874;2023-02-01T17:41:02;3.20;99.90
13686;DHT22;6915;48.296;8.874;2023-02-01T17:43:30;3.20;99.90
13686;DHT22;6915;48.296;8.874;2023-02-01T17:46:03;3.20;99.90
13686;DHT22;6915;48.296;8.874;2023-02-01T17:48:31;3.30;99.90
13686;DHT22;6915;48.296;8.874;2023-02-01T17:51:01;3.30;99.90
13686;DHT22;6915;48.296;8.874;2023-02-01T17:53:30;3.30;99.90
13686;DHT22;6915;48.296;8.874;2023-02-01T17:56:00;3.40;99.90
13686;DHT22;6915;48.296;8.874;2023-02-01T17:58:29;3.30;99.90
13686;DHT22;6915;48.296;8.874;2023-02-01T18:01:01;3.30;99.90
13686;DHT22;6915;48.296;8.874;2023-02-01T18:03:30;3.20;99.90
13686;DHT22;6915;48.296;8.874;2023-02-01T18:06:02;3.40;99.90
13686;DHT22;6915;48.296;8.874;2023-02-01T18:08:32;3.40;99.90
13686;DHT22;6915;48.296;8.874;2023-02-01T18:11:02;3.40;99.90
13686;DHT22;6915;48.296;8.874;2023-02-01T18:13:32;3.30;99.90
13686;DHT22;6915;48.296;8.874;2023-02-01T18:16:02;3.40;99.90
13686;DHT22;6915;48.296;8.874;2023-02-01T18:18:30;3.40;99.90